createdAt,value
2023-04-19T00:00:48.124Z,100529.91
2023-04-19T00:05:39.759Z,100526.19
2023-04-19T00:10:31.336Z,100531.59
2023-04-19T00:15:22.989Z,100517.28
2023-04-19T00:20:14.632Z,100523.50
2023-04-19T00:25:06.721Z,100516.59
2023-04-19T00:29:58.317Z,100505.13
2023-04-19T00:34:50.161Z,100502.63
2023-04-19T00:39:41.802Z,100495.69
2023-04-19T00:44:33.361Z,100499.63
2023-04-19T00:49:26.076Z,100482.09
2023-04-19T00:54:18.760Z,100495.75
2023-04-19T00:59:11.710Z,100485.97
2023-04-19T01:04:03.531Z,100484.50
2023-04-19T01:08:55.232Z,100474.88
2023-04-19T01:13:46.779Z,100469.00
2023-04-19T01:18:40.649Z,100475.59
2023-04-19T01:23:32.412Z,100458.94
2023-04-19T01:28:24.006Z,100462.63
2023-04-19T01:33:15.761Z,100453.88
2023-04-19T01:38:07.626Z,100453.19
2023-04-19T01:42:59.368Z,100451.38
2023-04-19T01:47:51.703Z,100437.19
2023-04-19T01:52:43.418Z,100445.47
2023-04-19T01:57:35.082Z,100426.59
2023-04-19T02:02:27.004Z,100434.66
2023-04-19T02:07:18.740Z,100429.09
2023-04-19T02:12:10.286Z,100421.88
2023-04-19T02:17:01.870Z,100407.53
2023-04-19T02:21:57.653Z,100404.00
2023-04-19T02:26:49.340Z,100410.22
2023-04-19T02:31:40.910Z,100407.53
2023-04-19T02:36:32.482Z,100401.28
2023-04-19T02:41:24.013Z,100411.91
2023-04-19T02:46:15.628Z,100401.94
2023-04-19T02:51:07.326Z,100413.25
2023-04-19T02:55:59.039Z,100412.56
2023-04-19T03:00:50.603Z,100393.50
2023-04-19T03:05:42.194Z,100397.88
2023-04-19T03:10:33.766Z,100396.88
2023-04-19T03:15:25.352Z,100398.53
2023-04-19T03:20:17.342Z,100387.75
2023-04-19T03:25:12.473Z,100385.91
2023-04-19T03:30:04.541Z,100391.13
2023-04-19T03:34:56.106Z,100403.56
2023-04-19T03:39:47.651Z,100389.06
2023-04-19T03:44:39.239Z,100388.91
2023-04-19T03:49:31.507Z,100384.16
2023-04-19T03:54:23.080Z,100397.47
2023-04-19T03:59:14.619Z,100393.09
2023-04-19T04:04:06.378Z,100392.06
2023-04-19T04:08:58.020Z,100386.66
2023-04-19T04:13:50.502Z,100381.09
2023-04-19T04:18:42.428Z,100385.66
2023-04-19T04:23:33.999Z,100381.78
2023-04-19T04:28:25.752Z,100374.50
2023-04-19T04:33:18.104Z,100383.25
2023-04-19T04:38:21.526Z,100384.94
2023-04-19T04:43:15.543Z,100393.03
2023-04-19T04:48:07.203Z,100389.50
2023-04-19T04:52:58.797Z,100385.41
2023-04-19T04:57:50.648Z,100387.28
2023-04-19T05:02:42.731Z,100387.75
2023-04-19T05:07:34.331Z,100383.56
2023-04-19T05:12:25.916Z,100395.66
2023-04-19T05:17:18.487Z,100392.50
2023-04-19T05:22:10.291Z,100386.28
2023-04-19T05:27:01.935Z,100400.22
2023-04-19T05:31:53.640Z,100397.06
2023-04-19T05:36:45.427Z,100404.81
2023-04-19T05:41:37.121Z,100401.94
2023-04-19T05:46:28.751Z,100393.66
2023-04-19T05:51:20.396Z,100403.03
2023-04-19T05:56:11.966Z,100393.22
2023-04-19T06:01:04.604Z,100405.97
2023-04-19T06:05:56.396Z,100390.06
2023-04-19T06:10:54.862Z,100391.56
2023-04-19T06:15:50.093Z,100398.84
2023-04-19T06:20:42.186Z,100401.38
2023-04-19T06:25:33.952Z,100394.75
2023-04-19T06:30:25.816Z,100387.31
2023-04-19T06:35:17.538Z,100381.06
2023-04-19T06:40:09.673Z,100388.63
2023-04-19T06:45:01.638Z,100393.00
2023-04-19T06:49:54.019Z,100389.94
2023-04-19T06:54:49.756Z,100391.44
2023-04-19T06:59:41.330Z,100392.53
2023-04-19T07:04:33.561Z,100396.56
2023-04-19T07:09:25.207Z,100405.81
2023-04-19T07:14:19.331Z,100401.69
2023-04-19T07:19:10.910Z,100417.66
2023-04-19T07:24:02.590Z,100419.25
2023-04-19T07:28:54.161Z,100411.41
2023-04-19T07:33:45.809Z,100424.47
2023-04-19T07:38:37.378Z,100415.81
2023-04-19T07:43:30.267Z,100427.13
2023-04-19T07:48:21.995Z,100422.63
2023-04-19T07:53:13.588Z,100419.00
2023-04-19T07:58:05.173Z,100421.25
2023-04-19T08:02:57.450Z,100416.97
2023-04-19T08:07:51.909Z,100429.00
2023-04-19T08:12:50.662Z,100402.44
2023-04-19T08:17:53.346Z,100412.50
2023-04-19T08:22:45.676Z,100409.59
2023-04-19T08:27:37.341Z,100417.34
2023-04-19T08:32:28.981Z,100437.72
2023-04-19T08:37:20.912Z,100426.63
2023-04-19T08:42:24.797Z,100431.41
2023-04-19T08:47:31.216Z,100440.56
2023-04-19T08:52:27.251Z,100427.97
2023-04-19T08:57:18.805Z,100446.41
2023-04-19T09:02:10.479Z,100437.09
2023-04-19T09:07:02.357Z,100442.00
2023-04-19T09:11:53.918Z,100436.22
2023-04-19T09:16:45.847Z,100437.31
2023-04-19T09:21:37.657Z,100428.94
2023-04-19T09:26:30.041Z,100426.88
2023-04-19T09:31:39.193Z,100431.88
2023-04-19T09:36:33.894Z,100426.47
2023-04-19T09:41:26.551Z,100435.63
2023-04-19T09:46:31.893Z,100415.63
2023-04-19T09:51:23.596Z,100419.34
2023-04-19T09:56:15.518Z,100427.91
2023-04-19T10:01:15.040Z,100425.38
2023-04-19T10:06:10.949Z,100418.72
2023-04-19T10:11:13.417Z,100416.28
2023-04-19T10:16:18.019Z,100430.50
2023-04-19T10:21:11.183Z,100409.22
2023-04-19T10:26:04.853Z,100417.03
2023-04-19T10:31:03.834Z,100400.72
2023-04-19T10:35:57.741Z,100395.31
2023-04-19T10:40:52.429Z,100409.78
2023-04-19T10:45:45.357Z,100408.75
2023-04-19T10:50:59.231Z,100382.06
2023-04-19T10:55:51.636Z,100382.28
2023-04-19T11:00:43.303Z,100380.63
2023-04-19T11:06:30.992Z,100371.63
2023-04-19T11:11:22.644Z,100387.94
2023-04-19T11:16:14.317Z,100383.53
2023-04-19T11:21:05.991Z,100382.09
2023-04-19T11:25:59.223Z,100375.22
2023-04-19T11:30:54.175Z,100369.59
2023-04-19T11:35:45.754Z,100362.88
2023-04-19T11:40:37.635Z,100363.28
2023-04-19T11:45:34.381Z,100357.03
2023-04-19T11:50:39.018Z,100362.88
2023-04-19T11:55:33.370Z,100354.72
2023-04-19T12:00:29.284Z,100341.44
2023-04-19T12:05:21.295Z,100333.84
2023-04-19T12:10:13.772Z,100339.00
2023-04-19T12:15:08.100Z,100338.13
2023-04-19T12:19:59.699Z,100343.78
2023-04-19T12:24:52.252Z,100331.44
2023-04-19T12:29:44.055Z,100330.59
2023-04-19T12:34:36.056Z,100319.94
2023-04-19T12:39:28.806Z,100321.31
2023-04-19T12:44:20.478Z,100334.72
2023-04-19T12:49:12.078Z,100302.03
2023-04-19T12:54:03.846Z,100298.69
2023-04-19T12:58:55.530Z,100281.44
2023-04-19T13:03:47.700Z,100322.13
2023-04-19T13:08:45.439Z,100289.72
2023-04-19T13:13:39.321Z,100289.84
2023-04-19T13:18:31.065Z,100296.97
2023-04-19T13:23:22.644Z,100284.63
2023-04-19T13:28:14.467Z,100295.53
2023-04-19T13:33:08.264Z,100263.81
2023-04-19T13:38:00.518Z,100254.31
2023-04-19T13:42:53.239Z,100261.06
2023-04-19T13:47:45.905Z,100250.38
2023-04-19T13:52:37.513Z,100236.28
2023-04-19T13:57:29.131Z,100233.13
2023-04-19T14:02:21.313Z,100218.91
2023-04-19T14:07:13.085Z,100244.97
2023-04-19T14:12:04.850Z,100231.53
2023-04-19T14:16:56.425Z,100212.69
2023-04-19T14:21:48.036Z,100232.44
2023-04-19T14:26:39.633Z,100227.34
2023-04-19T14:31:31.584Z,100229.53
2023-04-19T14:36:23.525Z,100239.97
2023-04-19T14:41:15.157Z,100213.03
2023-04-19T14:46:08.992Z,100207.66
2023-04-19T14:51:00.665Z,100200.66
2023-04-19T14:55:52.245Z,100254.16
2023-04-19T15:00:44.461Z,100215.75
2023-04-19T15:05:36.738Z,100212.72
2023-04-19T15:10:28.462Z,100228.78
2023-04-19T15:15:20.042Z,100206.81
2023-04-19T15:20:11.926Z,100207.56
2023-04-19T15:25:04.218Z,100211.34
2023-04-19T15:29:55.812Z,100211.75
2023-04-19T15:34:47.389Z,100174.53
2023-04-19T15:39:38.984Z,100211.75
2023-04-19T15:44:30.721Z,100197.72
2023-04-19T15:49:22.263Z,100200.22
2023-04-19T15:54:14.869Z,100256.75
2023-04-19T15:59:06.490Z,100208.78
2023-04-19T16:03:58.302Z,100225.66
2023-04-19T16:08:50.396Z,100231.19
2023-04-19T16:13:41.996Z,100213.31
2023-04-19T16:18:33.613Z,100246.03
2023-04-19T16:23:25.563Z,100230.41
2023-04-19T16:28:17.357Z,100218.91
2023-04-19T16:33:09.018Z,100219.34
2023-04-19T16:38:04.330Z,100236.13
2023-04-19T16:42:56.021Z,100232.41
2023-04-19T16:47:48.164Z,100250.06
2023-04-19T16:52:40.049Z,100226.88
2023-04-19T16:57:32.365Z,100254.38
2023-04-19T17:02:24.155Z,100247.91
2023-04-19T17:07:15.942Z,100258.66
2023-04-19T17:12:07.708Z,100261.91
2023-04-19T17:16:59.271Z,100254.59
2023-04-19T17:21:50.985Z,100251.31
2023-04-19T17:26:42.695Z,100253.81
2023-04-19T17:31:34.332Z,100273.53
2023-04-19T17:36:26.799Z,100280.28
2023-04-19T17:41:18.441Z,100275.44
2023-04-19T17:46:13.259Z,100275.50
2023-04-19T17:51:05.053Z,100267.75
2023-04-19T17:55:56.906Z,100265.47
2023-04-19T18:00:48.732Z,100261.94
2023-04-19T18:05:40.822Z,100266.53
2023-04-19T18:10:32.684Z,100270.69
2023-04-19T18:15:24.424Z,100270.69
2023-04-19T18:20:16.269Z,100295.94
2023-04-19T18:25:08.611Z,100256.88
2023-04-19T18:30:03.595Z,100269.34
2023-04-19T18:34:55.239Z,100256.19
2023-04-19T18:39:47.131Z,100281.00
2023-04-19T18:44:52.750Z,100295.09
2023-04-19T18:49:55.619Z,100287.94
2023-04-19T18:54:56.241Z,100270.38
2023-04-19T18:59:47.880Z,100305.31
2023-04-19T19:04:52.015Z,100300.88
2023-04-19T19:09:55.660Z,100300.22
2023-04-19T19:14:47.989Z,100317.66
2023-04-19T19:19:39.704Z,100317.59
2023-04-19T19:24:32.603Z,100314.41
2023-04-19T19:29:25.777Z,100321.63
2023-04-19T19:34:27.271Z,100333.63
2023-04-19T19:39:22.187Z,100324.16
2023-04-19T19:44:13.867Z,100342.66
2023-04-19T19:49:06.570Z,100312.34
2023-04-19T19:53:58.658Z,100332.25
2023-04-19T19:58:51.963Z,100324.28
2023-04-19T20:03:44.245Z,100335.19
2023-04-19T20:08:39.421Z,100345.50
2023-04-19T20:13:33.217Z,100346.47
2023-04-19T20:18:25.527Z,100349.25
2023-04-19T20:23:19.863Z,100344.78
2023-04-19T20:28:12.514Z,100358.22
2023-04-19T20:33:04.256Z,100361.38
2023-04-19T20:38:02.426Z,100361.94
2023-04-19T20:42:53.921Z,100347.69
2023-04-19T20:47:47.075Z,100360.63
2023-04-19T20:52:38.879Z,100365.28
2023-04-19T20:57:30.888Z,100377.84
2023-04-19T21:02:23.081Z,100375.31
2023-04-19T21:07:14.908Z,100380.63
2023-04-19T21:12:06.538Z,100364.50
2023-04-19T21:16:58.148Z,100373.50
2023-04-19T21:21:49.831Z,100377.44
2023-04-19T21:26:41.406Z,100375.66
2023-04-19T21:31:33.152Z,100373.00
2023-04-19T21:36:24.930Z,100372.88
2023-04-19T21:41:16.561Z,100365.88
2023-04-19T21:46:08.220Z,100367.41
2023-04-19T21:51:00.812Z,100367.66
2023-04-19T21:55:52.496Z,100354.25
2023-04-19T22:00:44.353Z,100349.06
2023-04-19T22:05:36.402Z,100351.66
2023-04-19T22:10:29.041Z,100333.19
2023-04-19T22:15:21.058Z,100344.50
2023-04-19T22:20:14.873Z,100342.72
2023-04-19T22:25:06.995Z,100335.31
2023-04-19T22:29:58.727Z,100335.00
2023-04-19T22:34:50.609Z,100335.22
2023-04-19T22:39:42.170Z,100328.00
2023-04-19T22:44:33.934Z,100321.63
2023-04-19T22:49:25.552Z,100317.47
2023-04-19T22:54:17.247Z,100320.50
2023-04-19T22:59:08.920Z,100325.59
2023-04-19T23:04:00.700Z,100318.22
2023-04-19T23:08:52.402Z,100314.50
2023-04-19T23:13:44.379Z,100318.22
2023-04-19T23:18:36.300Z,100306.28
2023-04-19T23:23:27.848Z,100320.94
2023-04-19T23:28:19.539Z,100312.19
2023-04-19T23:33:11.304Z,100315.22
2023-04-19T23:38:02.978Z,100318.25
2023-04-19T23:42:54.524Z,100310.69
2023-04-19T23:47:46.207Z,100305.16
2023-04-19T23:52:37.809Z,100297.09
2023-04-19T23:57:29.511Z,100313.91
